Time;durP1;ratioP1;P1;durP2;ratioP2;P2;SDS_P1;SDS_P2;PMS_P1;PMS_P2;Temp;Humidity;BMP_temperature;BMP_pressure;BME280_temperature;BME280_humidity;BME280_pressure;Samples;Min_cycle;Max_cycle;Signal;HPM_P1;HPM_P2
2023/05/01 00:00:49;;;;;;;117.57;7.60;;;;;;;;;;4988657;28;20081;-57
2023/05/01 00:03:16;;;;;;;84.72;6.53;;;;;;;;;;4983751;28;20052;-58
2023/05/01 00:05:42;;;;;;;104.43;7.30;;;;;;;;;;4989564;28;20130;-59
2023/05/01 00:08:07;;;;;;;113.30;7.82;;;;;;;;;;4985111;28;20034;-57
2023/05/01 00:10:34;;;;;;;121.03;7.73;;;;;;;;;;4984031;28;20062;-57
2023/05/01 00:12:59;;;;;;;106.65;7.40;;;;;;;;;;4986955;28;20287;-59
2023/05/01 00:15:24;;;;;;;72.55;6.13;;;;;;;;;;4988133;28;20045;-58
2023/05/01 00:17:50;;;;;;;95.90;6.90;;;;;;;;;;4987190;28;20525;-57
2023/05/01 00:20:15;;;;;;;114.35;7.57;;;;;;;;;;4984453;28;20054;-57
2023/05/01 00:22:41;;;;;;;100.07;6.97;;;;;;;;;;4984322;28;20021;-58
2023/05/01 00:25:06;;;;;;;91.35;6.60;;;;;;;;;;4987853;28;20022;-55
2023/05/01 00:27:32;;;;;;;106.25;7.13;;;;;;;;;;4984968;28;20054;-57
2023/05/01 00:29:57;;;;;;;91.73;6.27;;;;;;;;;;4985789;28;20031;-59
2023/05/01 00:32:22;;;;;;;116.57;7.60;;;;;;;;;;4984128;28;20272;-59
2023/05/01 00:34:48;;;;;;;104.77;7.40;;;;;;;;;;4985698;28;20292;-58
2023/05/01 00:37:13;;;;;;;87.95;6.90;;;;;;;;;;4986920;28;20360;-55
2023/05/01 00:39:38;;;;;;;106.80;7.15;;;;;;;;;;4986020;28;20022;-58
2023/05/01 00:42:04;;;;;;;112.20;7.17;;;;;;;;;;4989002;28;20366;-57
2023/05/01 00:44:29;;;;;;;105.78;7.35;;;;;;;;;;4986580;28;20257;-59
2023/05/01 00:46:56;;;;;;;85.70;6.35;;;;;;;;;;4983472;28;20615;-56
2023/05/01 00:49:21;;;;;;;80.35;6.03;;;;;;;;;;4988006;28;20012;-56
2023/05/01 00:51:48;;;;;;;114.13;7.07;;;;;;;;;;4985806;28;20038;-56
2023/05/01 00:54:13;;;;;;;100.68;7.10;;;;;;;;;;4984373;28;20049;-58
2023/05/01 00:56:40;;;;;;;94.25;6.40;;;;;;;;;;4982332;28;20445;-56
2023/05/01 00:59:05;;;;;;;104.22;7.07;;;;;;;;;;4983387;28;21126;-58
2023/05/01 01:01:30;;;;;;;99.80;7.10;;;;;;;;;;4987527;28;20038;-59
2023/05/01 01:03:55;;;;;;;105.13;7.20;;;;;;;;;;4983571;28;20026;-59
2023/05/01 01:06:27;;;;;;;95.85;6.75;;;;;;;;;;4988296;28;20107;-58
2023/05/01 01:08:53;;;;;;;76.68;6.18;;;;;;;;;;4988294;28;20029;-58
2023/05/01 01:11:41;;;;;;;107.75;7.32;;;;;;;;;;4983858;28;20053;-57
2023/05/01 01:14:46;;;;;;;117.50;7.38;;;;;;;;;;4982700;28;20384;-57
2023/05/01 01:17:11;;;;;;;108.43;7.07;;;;;;;;;;5041540;28;20037;-58
2023/05/01 01:19:51;;;;;;;106.93;7.32;;;;;;;;;;5053652;28;20025;-56
2023/05/01 01:22:19;;;;;;;91.43;6.47;;;;;;;;;;5013075;28;20030;-58
2023/05/01 01:24:54;;;;;;;80.75;6.40;;;;;;;;;;4986389;28;20054;-57
2023/05/01 01:27:33;;;;;;;104.90;7.20;;;;;;;;;;4986893;28;20126;-55
2023/05/01 01:30:17;;;;;;;106.20;7.20;;;;;;;;;;4984203;28;20026;-58
2023/05/01 01:32:45;;;;;;;110.32;7.22;;;;;;;;;;4984100;28;20562;-58
2023/05/01 01:35:18;;;;;;;80.88;6.47;;;;;;;;;;4985203;28;20111;-55
2023/05/01 01:38:09;;;;;;;112.93;7.50;;;;;;;;;;4983803;28;20033;-58
2023/05/01 01:40:40;;;;;;;125.22;7.70;;;;;;;;;;4986516;28;20034;-57
2023/05/01 01:43:06;;;;;;;95.10;6.90;;;;;;;;;;4983719;28;20118;-56
2023/05/01 01:45:46;;;;;;;107.20;7.13;;;;;;;;;;4989912;28;20036;-58
2023/05/01 01:48:20;;;;;;;95.50;7.05;;;;;;;;;;4982480;28;20026;-56
2023/05/01 01:50:46;;;;;;;125.30;8.32;;;;;;;;;;4983369;28;20672;-59
2023/05/01 01:53:14;;;;;;;124.43;7.85;;;;;;;;;;4982506;28;20034;-56
2023/05/01 01:55:40;;;;;;;93.72;7.20;;;;;;;;;;5033675;28;20717;-57
2023/05/01 01:58:05;;;;;;;150.75;8.55;;;;;;;;;;4987992;28;20029;-58
2023/05/01 02:00:33;;;;;;;102.15;7.28;;;;;;;;;;4983292;28;20228;-57
2023/05/01 02:02:59;;;;;;;79.90;6.22;;;;;;;;;;4984220;28;20060;-58
2023/05/01 02:05:25;;;;;;;115.97;7.78;;;;;;;;;;4981801;28;20029;-55
2023/05/01 02:07:51;;;;;;;90.65;6.88;;;;;;;;;;4983989;28;20059;-55
2023/05/01 02:10:17;;;;;;;105.80;7.38;;;;;;;;;;4987620;28;20129;-56
2023/05/01 02:12:46;;;;;;;100.40;7.28;;;;;;;;;;4984223;28;20038;-59
2023/05/01 02:15:14;;;;;;;105.13;7.82;;;;;;;;;;4981488;28;20441;-57
2023/05/01 02:17:40;;;;;;;102.30;7.68;;;;;;;;;;4990667;28;20011;-58
2023/05/01 02:20:06;;;;;;;102.45;7.50;;;;;;;;;;4983041;28;20037;-56
2023/05/01 02:22:32;;;;;;;111.63;7.93;;;;;;;;;;4985096;28;20166;-55
2023/05/01 02:24:59;;;;;;;98.68;7.20;;;;;;;;;;4983023;28;20388;-58
2023/05/01 02:27:34;;;;;;;104.05;7.80;;;;;;;;;;4983658;28;20030;-57
2023/05/01 02:30:00;;;;;;;116.63;8.25;;;;;;;;;;4986622;28;20038;-60
2023/05/01 02:32:25;;;;;;;97.80;7.15;;;;;;;;;;4981757;28;20046;-56
2023/05/01 02:34:50;;;;;;;107.25;7.55;;;;;;;;;;4982285;28;20034;-58
2023/05/01 02:37:16;;;;;;;113.50;8.25;;;;;;;;;;4986371;28;20061;-58
2023/05/01 02:39:41;;;;;;;96.10;7.60;;;;;;;;;;4983269;28;20022;-59
2023/05/01 02:42:08;;;;;;;112.18;8.43;;;;;;;;;;4984393;28;20053;-56
2023/05/01 02:44:42;;;;;;;93.13;8.13;;;;;;;;;;4983713;28;20159;-56
2023/05/01 02:47:08;;;;;;;106.65;8.55;;;;;;;;;;4985826;28;20509;-59
2023/05/01 02:49:34;;;;;;;107.32;7.95;;;;;;;;;;4983461;28;20033;-56
2023/05/01 02:51:59;;;;;;;103.78;7.80;;;;;;;;;;4981040;28;20046;-57
2023/05/01 02:54:25;;;;;;;89.25;7.50;;;;;;;;;;4981876;28;20424;-58
2023/05/01 02:56:51;;;;;;;91.32;7.63;;;;;;;;;;4984681;28;20073;-56
2023/05/01 02:59:16;;;;;;;100.50;8.00;;;;;;;;;;4987320;28;20107;-59
2023/05/01 03:01:41;;;;;;;97.00;8.63;;;;;;;;;;4983436;28;20033;-56
2023/05/01 03:04:07;;;;;;;102.05;8.25;;;;;;;;;;4984930;28;20281;-58
2023/05/01 03:06:32;;;;;;;125.53;9.07;;;;;;;;;;4982846;28;20771;-56
2023/05/01 03:08:57;;;;;;;93.05;7.38;;;;;;;;;;4983083;28;20467;-55
2023/05/01 03:11:23;;;;;;;93.03;7.88;;;;;;;;;;4983585;28;20115;-56
2023/05/01 03:13:48;;;;;;;162.00;10.63;;;;;;;;;;4983338;28;20026;-56
2023/05/01 03:16:13;;;;;;;103.68;7.90;;;;;;;;;;4983729;28;20038;-58
2023/05/01 03:18:39;;;;;;;99.60;8.52;;;;;;;;;;4984553;28;20077;-58
2023/05/01 03:21:04;;;;;;;103.30;8.57;;;;;;;;;;4986060;28;20129;-56
2023/05/01 03:23:29;;;;;;;96.75;8.32;;;;;;;;;;4983992;28;20415;-57
2023/05/01 03:25:54;;;;;;;119.57;9.57;;;;;;;;;;4981775;28;20034;-59
2023/05/01 03:28:22;;;;;;;97.75;8.55;;;;;;;;;;4984103;28;20280;-57
2023/05/01 03:30:48;;;;;;;110.85;8.80;;;;;;;;;;4984499;28;20083;-59
2023/05/01 03:33:14;;;;;;;102.93;8.52;;;;;;;;;;4988983;28;20030;-59
2023/05/01 03:35:39;;;;;;;98.45;8.18;;;;;;;;;;4987422;28;20041;-63
2023/05/01 03:38:05;;;;;;;116.63;8.48;;;;;;;;;;4973070;28;20034;-58
2023/05/01 03:40:30;;;;;;;101.25;8.63;;;;;;;;;;4985916;28;20050;-60
2023/05/01 03:42:55;;;;;;;76.70;7.50;;;;;;;;;;4990170;28;20030;-61
2023/05/01 03:45:20;;;;;;;115.95;9.10;;;;;;;;;;4986103;28;20456;-58
2023/05/01 03:47:46;;;;;;;98.47;8.20;;;;;;;;;;4986372;28;20561;-60
2023/05/01 03:50:11;;;;;;;111.88;8.60;;;;;;;;;;4986637;28;20029;-58
2023/05/01 03:52:37;;;;;;;124.00;9.23;;;;;;;;;;4985580;28;20034;-57
2023/05/01 03:55:02;;;;;;;84.15;8.10;;;;;;;;;;4986214;28;20030;-58
2023/05/01 03:57:27;;;;;;;94.45;7.97;;;;;;;;;;4985369;28;20870;-59
2023/05/01 03:59:53;;;;;;;105.20;8.70;;;;;;;;;;4988022;28;20516;-58
2023/05/01 04:02:19;;;;;;;85.75;7.75;;;;;;;;;;4977885;28;20033;-58
2023/05/01 04:04:44;;;;;;;115.63;9.02;;;;;;;;;;4985115;28;20541;-59
2023/05/01 04:07:09;;;;;;;79.17;7.50;;;;;;;;;;4987308;28;20289;-58
2023/05/01 04:09:34;;;;;;;92.88;8.40;;;;;;;;;;4986323;28;20260;-58
2023/05/01 04:12:01;;;;;;;132.73;9.65;;;;;;;;;;4987379;28;20045;-57
2023/05/01 04:14:26;;;;;;;88.78;8.13;;;;;;;;;;4986847;28;20103;-55
2023/05/01 04:16:51;;;;;;;83.63;7.72;;;;;;;;;;4988368;28;20053;-58
2023/05/01 04:19:17;;;;;;;87.07;7.47;;;;;;;;;;4984837;28;20568;-58
2023/05/01 04:21:42;;;;;;;91.60;7.30;;;;;;;;;;4984835;28;20518;-55
2023/05/01 04:24:07;;;;;;;122.43;9.27;;;;;;;;;;4987882;28;20672;-55
2023/05/01 04:26:32;;;;;;;92.10;8.32;;;;;;;;;;4984153;28;21008;-55
2023/05/01 04:28:59;;;;;;;85.60;8.20;;;;;;;;;;4986815;28;20026;-56
2023/05/01 04:31:24;;;;;;;126.85;8.65;;;;;;;;;;4985648;28;20266;-56
2023/05/01 04:33:50;;;;;;;154.73;10.57;;;;;;;;;;4983251;28;20365;-57
2023/05/01 04:36:15;;;;;;;104.38;8.38;;;;;;;;;;4989802;28;20145;-56
2023/05/01 04:38:41;;;;;;;115.15;8.68;;;;;;;;;;4986196;28;20411;-59
2023/05/01 04:41:06;;;;;;;77.57;7.03;;;;;;;;;;4983176;28;20045;-55
2023/05/01 04:43:32;;;;;;;116.18;9.27;;;;;;;;;;4985419;28;20030;-55
2023/05/01 04:45:57;;;;;;;98.35;8.48;;;;;;;;;;4986094;28;20069;-57
2023/05/01 04:48:22;;;;;;;87.50;8.20;;;;;;;;;;4988421;28;20041;-56
2023/05/01 04:50:48;;;;;;;119.32;9.10;;;;;;;;;;4983970;28;20253;-59
2023/05/01 04:53:13;;;;;;;112.88;8.70;;;;;;;;;;4985830;28;20090;-55
2023/05/01 04:55:38;;;;;;;101.35;7.88;;;;;;;;;;4982372;28;20061;-55
2023/05/01 04:58:04;;;;;;;110.10;9.43;;;;;;;;;;4985158;28;20114;-56
2023/05/01 05:00:29;;;;;;;89.80;8.43;;;;;;;;;;4988144;28;20038;-56
2023/05/01 05:02:55;;;;;;;109.00;8.93;;;;;;;;;;4987499;28;20018;-58
2023/05/01 05:05:20;;;;;;;76.55;7.88;;;;;;;;;;4985621;28;20026;-58
2023/05/01 05:07:45;;;;;;;93.67;8.27;;;;;;;;;;4986491;28;20795;-59
2023/05/01 05:10:11;;;;;;;117.18;9.82;;;;;;;;;;4984919;28;20520;-59
2023/05/01 05:12:36;;;;;;;82.97;8.03;;;;;;;;;;4984289;28;20084;-60
2023/05/01 05:15:02;;;;;;;112.75;9.30;;;;;;;;;;4982485;28;20281;-64
2023/05/01 05:17:27;;;;;;;104.63;8.23;;;;;;;;;;4984931;28;20567;-59
2023/05/01 05:19:52;;;;;;;74.65;7.63;;;;;;;;;;4987027;28;20953;-58
2023/05/01 05:22:18;;;;;;;117.53;9.15;;;;;;;;;;4986374;28;20030;-57
2023/05/01 05:24:43;;;;;;;99.90;8.70;;;;;;;;;;4984836;28;20069;-57
2023/05/01 05:27:09;;;;;;;92.93;8.13;;;;;;;;;;4984097;28;20031;-59
2023/05/01 05:29:34;;;;;;;108.47;9.10;;;;;;;;;;4985076;28;20018;-57
2023/05/01 05:31:59;;;;;;;90.43;7.63;;;;;;;;;;4987571;28;20034;-59
2023/05/01 05:34:25;;;;;;;83.45;8.02;;;;;;;;;;4984142;28;20021;-59
2023/05/01 05:36:50;;;;;;;92.45;7.90;;;;;;;;;;4986007;28;20140;-58
2023/05/01 05:39:16;;;;;;;94.80;8.95;;;;;;;;;;4984361;28;20678;-58
2023/05/01 05:41:41;;;;;;;92.90;8.57;;;;;;;;;;4986107;28;20038;-59
2023/05/01 05:44:06;;;;;;;87.45;8.55;;;;;;;;;;4983831;28;20645;-59
2023/05/01 05:46:32;;;;;;;90.38;8.65;;;;;;;;;;4984605;28;20031;-58
2023/05/01 05:48:57;;;;;;;110.70;10.10;;;;;;;;;;4989211;28;20564;-57
2023/05/01 05:51:22;;;;;;;78.60;7.47;;;;;;;;;;4981154;28;20851;-59
2023/05/01 05:53:47;;;;;;;136.70;10.30;;;;;;;;;;4983430;28;20336;-57
2023/05/01 05:56:13;;;;;;;110.43;9.30;;;;;;;;;;4984893;28;20727;-58
2023/05/01 05:58:38;;;;;;;84.30;8.50;;;;;;;;;;4986150;28;20079;-60
2023/05/01 06:01:05;;;;;;;97.90;9.47;;;;;;;;;;4987803;28;20281;-58
2023/05/01 06:03:31;;;;;;;81.10;8.25;;;;;;;;;;4986448;28;20670;-58
2023/05/01 06:05:56;;;;;;;91.05;8.75;;;;;;;;;;4984238;28;20053;-57
2023/05/01 06:08:22;;;;;;;96.80;8.52;;;;;;;;;;4986255;28;20054;-59
2023/05/01 06:10:47;;;;;;;113.90;9.23;;;;;;;;;;4989658;28;20042;-59
2023/05/01 06:13:12;;;;;;;90.03;9.30;;;;;;;;;;4988613;28;20053;-57
2023/05/01 06:15:38;;;;;;;85.75;8.10;;;;;;;;;;4984986;28;20403;-58
2023/05/01 06:18:03;;;;;;;83.65;8.80;;;;;;;;;;4988193;28;20091;-57
2023/05/01 06:20:29;;;;;;;84.80;9.05;;;;;;;;;;4985312;28;20120;-57
2023/05/01 06:22:54;;;;;;;71.00;8.43;;;;;;;;;;4985137;28;20041;-61
2023/05/01 06:25:20;;;;;;;94.00;9.68;;;;;;;;;;4984042;28;20026;-59
2023/05/01 06:27:45;;;;;;;108.65;10.15;;;;;;;;;;4988350;28;20100;-58
2023/05/01 06:30:11;;;;;;;87.38;9.73;;;;;;;;;;4984887;28;20025;-58
2023/05/01 06:32:36;;;;;;;89.35;9.82;;;;;;;;;;4984081;28;20030;-57
2023/05/01 06:35:01;;;;;;;93.40;8.45;;;;;;;;;;4983796;28;20022;-58
2023/05/01 06:37:26;;;;;;;86.10;9.20;;;;;;;;;;4984342;28;20464;-58
2023/05/01 06:39:52;;;;;;;81.03;9.37;;;;;;;;;;4984500;28;20864;-59
2023/05/01 06:42:17;;;;;;;81.47;8.97;;;;;;;;;;4983479;28;20034;-60
2023/05/01 06:44:42;;;;;;;101.27;11.13;;;;;;;;;;4983790;28;20602;-59
2023/05/01 06:47:08;;;;;;;91.13;9.32;;;;;;;;;;4983410;28;20344;-58
2023/05/01 06:49:34;;;;;;;90.35;9.57;;;;;;;;;;4989975;28;20688;-60
2023/05/01 06:51:59;;;;;;;86.75;9.88;;;;;;;;;;4982573;28;20042;-60
2023/05/01 06:54:25;;;;;;;82.13;9.20;;;;;;;;;;4983666;28;20053;-58
2023/05/01 06:56:50;;;;;;;79.85;8.82;;;;;;;;;;4982541;28;20624;-60
2023/05/01 06:59:16;;;;;;;79.72;9.35;;;;;;;;;;4986177;28;20033;-58
2023/05/01 07:01:41;;;;;;;113.33;10.30;;;;;;;;;;4982763;28;20556;-59
2023/05/01 07:04:06;;;;;;;94.57;8.43;;;;;;;;;;4981416;28;20970;-60
2023/05/01 07:06:31;;;;;;;82.03;9.80;;;;;;;;;;4984209;28;20042;-57
2023/05/01 07:08:57;;;;;;;94.40;9.95;;;;;;;;;;4981674;28;20775;-58
2023/05/01 07:11:22;;;;;;;81.27;9.03;;;;;;;;;;4984390;28;20035;-57
2023/05/01 07:13:47;;;;;;;144.75;11.77;;;;;;;;;;4983789;28;20288;-59
2023/05/01 07:16:13;;;;;;;94.03;9.23;;;;;;;;;;4983239;28;20049;-57
2023/05/01 07:18:38;;;;;;;83.90;7.78;;;;;;;;;;4983434;28;20261;-60
2023/05/01 07:21:04;;;;;;;90.07;8.20;;;;;;;;;;4982834;28;20066;-57
2023/05/01 07:23:29;;;;;;;83.78;8.63;;;;;;;;;;4984321;28;20030;-60
2023/05/01 07:25:54;;;;;;;84.70;8.57;;;;;;;;;;4982522;28;20460;-59
2023/05/01 07:28:20;;;;;;;72.55;9.15;;;;;;;;;;4984635;28;21059;-59
2023/05/01 07:30:46;;;;;;;108.05;10.82;;;;;;;;;;4969863;28;20038;-57
2023/05/01 07:33:11;;;;;;;101.07;10.05;;;;;;;;;;4983717;28;20037;-57
2023/05/01 07:35:36;;;;;;;75.00;8.23;;;;;;;;;;4986064;28;20815;-58
2023/05/01 07:38:02;;;;;;;75.72;8.90;;;;;;;;;;4983287;28;20554;-59
2023/05/01 07:40:27;;;;;;;106.80;10.23;;;;;;;;;;4981995;28;20042;-60
2023/05/01 07:42:52;;;;;;;74.77;9.43;;;;;;;;;;4983850;28;20022;-61
2023/05/01 07:45:17;;;;;;;73.67;8.67;;;;;;;;;;4982002;28;20018;-61
2023/05/01 07:47:43;;;;;;;94.78;9.88;;;;;;;;;;4984886;28;20276;-59
2023/05/01 07:50:08;;;;;;;78.57;8.95;;;;;;;;;;4982580;28;20050;-61
2023/05/01 07:52:34;;;;;;;77.20;9.30;;;;;;;;;;4982761;28;20725;-57
2023/05/01 07:54:59;;;;;;;79.33;9.23;;;;;;;;;;5015054;28;20278;-59
2023/05/01 07:57:24;;;;;;;69.50;9.35;;;;;;;;;;4980897;28;20117;-58
2023/05/01 07:59:56;;;;;;;92.77;10.10;;;;;;;;;;4983537;28;20519;-58
2023/05/01 08:02:21;;;;;;;105.32;10.15;;;;;;;;;;4981340;28;20386;-59
2023/05/01 08:04:47;;;;;;;71.32;8.80;;;;;;;;;;4981104;28;20506;-60
2023/05/01 08:07:12;;;;;;;94.85;10.25;;;;;;;;;;4981827;28;20624;-60
2023/05/01 08:09:37;;;;;;;76.28;8.68;;;;;;;;;;4985340;28;20607;-59
2023/05/01 08:12:03;;;;;;;88.43;9.53;;;;;;;;;;4986617;28;20030;-59
2023/05/01 08:14:28;;;;;;;80.25;9.50;;;;;;;;;;4984100;28;20045;-59
2023/05/01 08:16:54;;;;;;;63.47;8.40;;;;;;;;;;4983300;28;20054;-60
2023/05/01 08:19:19;;;;;;;74.45;8.57;;;;;;;;;;4988503;28;20574;-58
2023/05/01 08:21:44;;;;;;;73.57;8.50;;;;;;;;;;4985420;28;20042;-59
2023/05/01 08:24:10;;;;;;;77.03;8.50;;;;;;;;;;4982746;28;20049;-57
2023/05/01 08:26:35;;;;;;;108.80;10.52;;;;;;;;;;4986927;28;20042;-60
2023/05/01 08:29:00;;;;;;;60.22;8.48;;;;;;;;;;4985257;28;20042;-58
2023/05/01 08:31:25;;;;;;;84.20;9.13;;;;;;;;;;4984959;28;20038;-58
2023/05/01 08:33:51;;;;;;;122.53;11.43;;;;;;;;;;4985609;28;20102;-58
2023/05/01 08:36:16;;;;;;;74.77;8.77;;;;;;;;;;4988365;28;20757;-58
2023/05/01 08:38:41;;;;;;;88.53;9.73;;;;;;;;;;4984353;28;20026;-60
2023/05/01 08:41:07;;;;;;;82.53;8.53;;;;;;;;;;4984865;28;20265;-58
2023/05/01 08:43:32;;;;;;;87.15;9.73;;;;;;;;;;4984642;28;20341;-57
2023/05/01 08:45:59;;;;;;;66.80;8.18;;;;;;;;;;4985347;28;20345;-61
2023/05/01 08:48:26;;;;;;;83.07;8.82;;;;;;;;;;4986888;28;20040;-57
2023/05/01 08:50:54;;;;;;;63.53;8.02;;;;;;;;;;4984031;28;20589;-60
2023/05/01 08:53:20;;;;;;;103.28;10.07;;;;;;;;;;4981584;28;20034;-58
2023/05/01 08:55:46;;;;;;;84.97;8.48;;;;;;;;;;4985601;28;20444;-60
2023/05/01 08:58:12;;;;;;;104.25;10.23;;;;;;;;;;4984553;28;20057;-59
2023/05/01 09:00:38;;;;;;;82.53;9.23;;;;;;;;;;4986654;28;20038;-60
2023/05/01 09:03:04;;;;;;;79.97;9.10;;;;;;;;;;4986576;28;20341;-59
2023/05/01 09:05:30;;;;;;;97.45;9.82;;;;;;;;;;4983564;28;20562;-61
2023/05/01 09:07:57;;;;;;;84.93;9.07;;;;;;;;;;4983966;28;20116;-60
2023/05/01 09:10:23;;;;;;;76.57;8.52;;;;;;;;;;4984004;28;20152;-57
2023/05/01 09:12:53;;;;;;;73.30;9.23;;;;;;;;;;4983689;28;20052;-61
2023/05/01 09:15:18;;;;;;;95.28;9.65;;;;;;;;;;4980716;28;20031;-58
2023/05/01 09:17:44;;;;;;;100.07;10.02;;;;;;;;;;4987420;28;20022;-57
2023/05/01 09:20:10;;;;;;;80.95;8.77;;;;;;;;;;4986611;28;20535;-58
2023/05/01 09:22:35;;;;;;;94.15;9.52;;;;;;;;;;4985753;28;20030;-58
2023/05/01 09:25:01;;;;;;;82.20;7.90;;;;;;;;;;4986037;28;20038;-59
2023/05/01 09:27:26;;;;;;;87.82;8.35;;;;;;;;;;4983793;28;20295;-58
2023/05/01 09:29:52;;;;;;;103.63;8.95;;;;;;;;;;4986522;28;20046;-58
2023/05/01 09:32:22;;;;;;;119.38;9.82;;;;;;;;;;4965656;28;20149;-59
2023/05/01 09:34:48;;;;;;;60.15;7.05;;;;;;;;;;4987564;28;20042;-59
2023/05/01 09:37:28;;;;;;;99.75;8.95;;;;;;;;;;4986910;28;20041;-60
2023/05/01 09:40:10;;;;;;;67.90;7.20;;;;;;;;;;4985249;28;20686;-58
2023/05/01 09:42:36;;;;;;;92.65;8.75;;;;;;;;;;4985664;28;20050;-58
2023/05/01 09:45:03;;;;;;;85.32;8.10;;;;;;;;;;4990057;28;20045;-60
2023/05/01 09:47:29;;;;;;;87.32;8.35;;;;;;;;;;4986512;28;20054;-62
2023/05/01 09:49:55;;;;;;;63.88;6.90;;;;;;;;;;4984088;28;20159;-59
2023/05/01 09:52:21;;;;;;;110.78;8.88;;;;;;;;;;4984597;28;20077;-59
2023/05/01 09:54:46;;;;;;;90.15;8.80;;;;;;;;;;4985173;28;20451;-61
2023/05/01 09:57:12;;;;;;;75.00;7.45;;;;;;;;;;4984549;28;20571;-58
2023/05/01 09:59:37;;;;;;;108.18;9.45;;;;;;;;;;4985818;28;20040;-61
2023/05/01 10:02:03;;;;;;;89.68;7.60;;;;;;;;;;4981728;28;20575;-59
2023/05/01 10:04:29;;;;;;;89.10;8.07;;;;;;;;;;4984906;28;20030;-61
2023/05/01 10:06:55;;;;;;;93.15;8.95;;;;;;;;;;4980318;28;20042;-59
2023/05/01 10:09:27;;;;;;;100.70;8.90;;;;;;;;;;4983874;28;20187;-58
2023/05/01 10:11:56;;;;;;;78.30;8.30;;;;;;;;;;4987474;28;20034;-58
2023/05/01 10:14:22;;;;;;;82.40;8.80;;;;;;;;;;4981593;28;20545;-59
2023/05/01 10:16:48;;;;;;;89.88;8.80;;;;;;;;;;4987048;28;20097;-59
2023/05/01 10:19:15;;;;;;;100.38;8.77;;;;;;;;;;4987542;28;20577;-57
2023/05/01 10:21:41;;;;;;;93.03;8.68;;;;;;;;;;4985973;28;20034;-60
2023/05/01 10:24:07;;;;;;;98.30;9.30;;;;;;;;;;4982220;28;20857;-59
2023/05/01 10:26:33;;;;;;;92.82;8.80;;;;;;;;;;4983985;28;20081;-58
2023/05/01 10:28:59;;;;;;;78.85;8.15;;;;;;;;;;4985384;28;20075;-58
2023/05/01 10:31:26;;;;;;;89.05;8.77;;;;;;;;;;4984289;28;20073;-57
2023/05/01 10:33:52;;;;;;;196.10;13.60;;;;;;;;;;4981030;28;21017;-60
2023/05/01 10:36:25;;;;;;;87.47;8.88;;;;;;;;;;4987745;28;20049;-57
2023/05/01 10:38:50;;;;;;;106.10;9.32;;;;;;;;;;4974604;28;20066;-56
2023/05/01 10:41:16;;;;;;;103.32;9.27;;;;;;;;;;4978301;28;20183;-56
2023/05/01 10:43:41;;;;;;;142.00;11.05;;;;;;;;;;4980623;28;20014;-56
2023/05/01 10:46:06;;;;;;;139.75;10.00;;;;;;;;;;4981025;28;20432;-56
2023/05/01 10:48:38;;;;;;;127.20;10.20;;;;;;;;;;4984548;28;20057;-56
2023/05/01 10:51:07;;;;;;;115.50;8.75;;;;;;;;;;4983650;28;20125;-57
2023/05/01 10:53:32;;;;;;;124.75;8.88;;;;;;;;;;4981025;28;20492;-54
2023/05/01 10:55:58;;;;;;;153.37;11.20;;;;;;;;;;4977685;28;20171;-56
2023/05/01 10:58:50;;;;;;;135.98;10.93;;;;;;;;;;4982470;28;20274;-58
2023/05/01 11:01:27;;;;;;;158.63;11.13;;;;;;;;;;4972018;28;20053;-63
2023/05/01 11:03:56;;;;;;;164.18;11.70;;;;;;;;;;4982032;28;20583;-61
2023/05/01 11:06:22;;;;;;;115.97;9.35;;;;;;;;;;4978700;28;20042;-58
2023/05/01 11:08:48;;;;;;;123.88;8.65;;;;;;;;;;4980539;28;20690;-56
2023/05/01 11:11:22;;;;;;;147.30;11.23;;;;;;;;;;4979270;28;20693;-58
2023/05/01 11:14:03;;;;;;;155.52;11.18;;;;;;;;;;4979816;28;21164;-57
2023/05/01 11:16:38;;;;;;;163.68;11.00;;;;;;;;;;4980763;28;20043;-58
2023/05/01 11:19:03;;;;;;;160.52;11.40;;;;;;;;;;4981422;28;20045;-56
2023/05/01 11:21:32;;;;;;;144.25;11.02;;;;;;;;;;4979282;28;20055;-56
2023/05/01 11:23:58;;;;;;;129.60;10.15;;;;;;;;;;4979169;28;20018;-56
2023/05/01 11:26:23;;;;;;;117.80;9.65;;;;;;;;;;4978335;28;20053;-61
2023/05/01 11:28:52;;;;;;;139.35;11.00;;;;;;;;;;4980732;28;20040;-59
2023/05/01 11:31:18;;;;;;;152.15;11.38;;;;;;;;;;4982606;28;20110;-57
2023/05/01 11:33:43;;;;;;;182.32;13.38;;;;;;;;;;4978338;28;20026;-58
2023/05/01 11:36:09;;;;;;;170.77;12.98;;;;;;;;;;4979484;28;20105;-56
2023/05/01 11:38:34;;;;;;;109.88;11.05;;;;;;;;;;4979340;28;20025;-57
2023/05/01 11:41:00;;;;;;;131.55;13.38;;;;;;;;;;4980787;28;20045;-58
2023/05/01 11:43:25;;;;;;;81.07;9.25;;;;;;;;;;4981071;28;20022;-59
2023/05/01 11:45:53;;;;;;;98.63;11.27;;;;;;;;;;4980779;28;20145;-56
2023/05/01 11:48:19;;;;;;;104.80;11.35;;;;;;;;;;4982566;28;20030;-60
2023/05/01 11:50:45;;;;;;;96.63;11.68;;;;;;;;;;4980039;28;20042;-57
2023/05/01 11:53:11;;;;;;;105.13;12.25;;;;;;;;;;4980785;28;20034;-60
2023/05/01 11:55:37;;;;;;;101.63;10.98;;;;;;;;;;4984013;28;20050;-59
2023/05/01 11:58:03;;;;;;;108.45;10.63;;;;;;;;;;4982789;28;20081;-59
2023/05/01 12:00:29;;;;;;;142.15;13.52;;;;;;;;;;4983536;28;20121;-56
2023/05/01 12:03:14;;;;;;;131.57;13.55;;;;;;;;;;4984176;28;20172;-59
2023/05/01 12:05:41;;;;;;;146.98;14.20;;;;;;;;;;4983369;28;20046;-58
2023/05/01 12:08:06;;;;;;;148.35;14.75;;;;;;;;;;4987287;28;20447;-58
2023/05/01 12:10:32;;;;;;;121.50;13.68;;;;;;;;;;4980160;28;20102;-58
2023/05/01 12:12:57;;;;;;;95.95;12.68;;;;;;;;;;4984499;28;20030;-57
2023/05/01 12:15:23;;;;;;;97.85;12.23;;;;;;;;;;4986319;28;20073;-59
2023/05/01 12:17:49;;;;;;;128.60;14.10;;;;;;;;;;4984047;28;20026;-60
2023/05/01 12:20:14;;;;;;;108.63;12.80;;;;;;;;;;4983135;28;20052;-59
2023/05/01 12:22:49;;;;;;;104.60;12.77;;;;;;;;;;4980662;28;20045;-59
2023/05/01 12:25:15;;;;;;;129.73;12.85;;;;;;;;;;4981730;28;20132;-56
2023/05/01 12:27:44;;;;;;;124.50;12.98;;;;;;;;;;4985864;28;20567;-57
2023/05/01 12:30:09;;;;;;;100.05;12.18;;;;;;;;;;4985815;28;20053;-57
2023/05/01 12:32:34;;;;;;;86.13;15.52;;;;;;;;;;4981449;28;20049;-59
2023/05/01 12:35:00;;;;;;;99.30;12.73;;;;;;;;;;4983080;28;20040;-58
2023/05/01 12:37:29;;;;;;;117.07;13.20;;;;;;;;;;4980151;28;20068;-57
2023/05/01 12:39:55;;;;;;;73.78;11.43;;;;;;;;;;4979734;28;20690;-56
2023/05/01 12:42:20;;;;;;;118.00;12.85;;;;;;;;;;4981418;28;20684;-57
2023/05/01 12:44:45;;;;;;;136.83;14.20;;;;;;;;;;4983425;28;20026;-58
2023/05/01 12:47:11;;;;;;;140.85;15.15;;;;;;;;;;4980745;28;20350;-60
2023/05/01 12:49:36;;;;;;;139.13;14.43;;;;;;;;;;4982608;28;20031;-59
2023/05/01 12:52:03;;;;;;;138.02;13.60;;;;;;;;;;4984155;28;20423;-61
2023/05/01 12:54:32;;;;;;;188.15;16.35;;;;;;;;;;4980163;28;20033;-60
2023/05/01 12:57:07;;;;;;;140.38;14.25;;;;;;;;;;4981054;28;20099;-58
2023/05/01 12:59:32;;;;;;;125.95;13.73;;;;;;;;;;4984151;28;20049;-60
2023/05/01 13:01:59;;;;;;;127.65;13.32;;;;;;;;;;4984592;28;20046;-58
2023/05/01 13:04:25;;;;;;;130.05;13.73;;;;;;;;;;4981519;28;20054;-55
2023/05/01 13:06:51;;;;;;;145.82;14.32;;;;;;;;;;4982969;28;20378;-56
2023/05/01 13:09:16;;;;;;;157.65;15.02;;;;;;;;;;4980729;28;20025;-59
2023/05/01 13:11:42;;;;;;;147.30;14.65;;;;;;;;;;4985136;28;20043;-57
2023/05/01 13:14:08;;;;;;;166.15;15.35;;;;;;;;;;4980903;28;20740;-59
2023/05/01 13:16:33;;;;;;;111.60;11.95;;;;;;;;;;4980902;28;20284;-57
2023/05/01 13:18:59;;;;;;;119.40;13.43;;;;;;;;;;4982520;28;20061;-58
2023/05/01 13:21:25;;;;;;;128.05;12.88;;;;;;;;;;4983359;28;20121;-59
2023/05/01 13:23:52;;;;;;;147.68;14.73;;;;;;;;;;4982342;28;20022;-56
2023/05/01 13:26:23;;;;;;;107.50;12.73;;;;;;;;;;4979810;28;20220;-56
2023/05/01 13:28:48;;;;;;;110.95;12.93;;;;;;;;;;4983715;28;20037;-59
2023/05/01 13:31:14;;;;;;;112.88;13.70;;;;;;;;;;4982495;28;20038;-58
2023/05/01 13:33:42;;;;;;;136.57;14.27;;;;;;;;;;4983091;28;20362;-57
2023/05/01 13:36:11;;;;;;;101.15;12.20;;;;;;;;;;4982400;28;20106;-62
2023/05/01 13:38:41;;;;;;;113.13;13.43;;;;;;;;;;4985365;28;20097;-57
2023/05/01 13:41:06;;;;;;;104.50;13.23;;;;;;;;;;4983121;28;20038;-59
2023/05/01 13:43:33;;;;;;;100.97;12.87;;;;;;;;;;4984156;28;20030;-59
2023/05/01 13:45:59;;;;;;;74.40;10.93;;;;;;;;;;4985730;28;20095;-59
2023/05/01 13:48:24;;;;;;;83.30;11.38;;;;;;;;;;4986422;28;20030;-59
2023/05/01 13:50:49;;;;;;;101.28;12.43;;;;;;;;;;4980361;28;20099;-59
2023/05/01 13:53:15;;;;;;;90.07;12.07;;;;;;;;;;4983969;28;20092;-58
2023/05/01 13:55:41;;;;;;;98.25;12.30;;;;;;;;;;4971295;28;20334;-59
2023/05/01 13:58:06;;;;;;;89.80;12.00;;;;;;;;;;4985152;28;20022;-60
2023/05/01 14:00:32;;;;;;;91.43;11.70;;;;;;;;;;4969504;28;20139;-58
2023/05/01 14:02:58;;;;;;;94.32;12.18;;;;;;;;;;4987968;28;20060;-59
2023/05/01 14:05:26;;;;;;;74.22;11.60;;;;;;;;;;4983744;28;20018;-58
2023/05/01 14:07:56;;;;;;;69.15;10.85;;;;;;;;;;4972052;28;20018;-58
2023/05/01 14:10:22;;;;;;;103.53;12.40;;;;;;;;;;4983461;28;20026;-59
2023/05/01 14:12:47;;;;;;;90.97;11.50;;;;;;;;;;4984583;28;20026;-58
2023/05/01 14:15:13;;;;;;;124.45;13.60;;;;;;;;;;4982157;28;20045;-59